Time;durP1;ratioP1;P1;durP2;ratioP2;P2;SDS_P1;SDS_P2;PMS_P1;PMS_P2;Temp;Humidity;BMP_temperature;BMP_pressure;BME280_temperature;BME280_humidity;BME280_pressure;Samples;Min_cycle;Max_cycle;Signal;HPM_P1;HPM_P2
2022/05/04 00:02:30;;;;;;;2.73;2.10;;;;;;;;;;20948289;28;20247;-82
2022/05/04 00:12:37;;;;;;;2.67;1.77;;;;;;;;;;20945156;28;20258;-84
2022/05/04 00:22:39;;;;;;;3.17;2.20;;;;;;;;;;20978457;28;20214;-83
2022/05/04 00:32:41;;;;;;;2.90;1.93;;;;;;;;;;20944449;28;20282;-82
2022/05/04 00:42:44;;;;;;;2.80;2.07;;;;;;;;;;20959410;28;20245;-82
2022/05/04 00:52:45;;;;;;;2.87;2.00;;;18.40;99.90;;;;;;20945232;28;20209;-81
2022/05/04 01:02:47;;;;;;;3.03;1.93;;;;;;;;;;20807751;28;20277;-82
2022/05/04 01:12:53;;;;;;;2.73;2.00;;;17.80;99.90;;;;;;20620469;28;20221;-82
2022/05/04 01:22:55;;;;;;;3.87;2.00;;;18.10;99.90;;;;;;20554978;28;20278;-82
2022/05/04 01:32:56;;;;;;;2.90;2.07;;;;;;;;;;20621729;28;20243;-82
2022/05/04 01:42:59;;;;;;;3.70;1.87;;;;;;;;;;20647293;28;20278;-82
2022/05/04 01:53:01;;;;;;;3.00;2.30;;;;;;;;;;20606936;28;20266;-84
2022/05/04 02:03:03;;;;;;;3.30;2.07;;;;;;;;;;20637431;28;20228;-83
2022/05/04 02:13:05;;;;;;;3.93;2.30;;;;;;;;;;20604398;28;20284;-83
2022/05/04 02:23:06;;;;;;;3.23;1.90;;;;;;;;;;20552881;28;20242;-83
2022/05/04 02:33:08;;;;;;;4.10;1.80;;;;;;;;;;20622633;28;20228;-83
2022/05/04 02:43:10;;;;;;;3.80;2.00;;;;;;;;;;20617329;28;20236;-82
2022/05/04 02:53:11;;;;;;;3.37;1.80;;;;;;;;;;20632885;28;20209;-83
2022/05/04 03:03:13;;;;;;;2.37;1.73;;;;;;;;;;20614506;28;20305;-83
2022/05/04 03:13:15;;;;;;;2.63;1.87;;;;;;;;;;20630201;28;20283;-82
2022/05/04 03:23:16;;;;;;;2.10;1.70;;;;;;;;;;20613914;28;20229;-82
2022/05/04 03:33:18;;;;;;;2.27;1.60;;;;;;;;;;20628435;28;20774;-82
2022/05/04 03:43:20;;;;;;;2.10;1.57;;;;;;;;;;20547101;28;20592;-82
2022/05/04 03:53:21;;;;;;;2.20;1.50;;;;;;;;;;20610563;28;20205;-81
2022/05/04 04:03:23;;;;;;;2.30;1.77;;;;;;;;;;20610197;28;20232;-81
2022/05/04 04:13:25;;;;;;;2.43;1.90;;;16.90;99.90;;;;;;20608820;28;20278;-81
2022/05/04 04:23:27;;;;;;;2.10;1.40;;;;;;;;;;20640399;28;20247;-81
2022/05/04 04:33:29;;;;;;;2.20;1.80;;;;;;;;;;20623888;28;20258;-80
2022/05/04 04:43:30;;;;;;;4.13;2.20;;;;;;;;;;20609398;28;20242;-80
2022/05/04 04:53:33;;;;;;;2.87;2.10;;;;;;;;;;20638044;28;20224;-81
2022/05/04 05:03:36;;;;;;;3.13;2.10;;;;;;;;;;20553847;28;20269;-81
2022/05/04 05:16:06;;;;;;;2.57;1.83;;;;;;;;;;20568221;28;20225;-82
2022/05/04 05:23:59;;;;;;;2.70;1.80;;;;;;;;;;20643491;28;20290;-82
2022/05/04 05:34:01;;;;;;;2.63;1.90;;;;;;;;;;20606411;28;20224;-82
2022/05/04 05:44:03;;;;;;;2.53;1.80;;;;;;;;;;20887075;28;20209;-81
2022/05/04 05:54:05;;;;;;;2.53;1.80;;;;;;;;;;20956650;28;20217;-82
2022/05/04 06:04:06;;;;;;;6.30;2.10;;;;;;;;;;20955940;28;20580;-82
2022/05/04 06:14:08;;;;;;;3.27;1.90;;;;;;;;;;20986832;28;20217;-81
2022/05/04 06:24:10;;;;;;;2.13;1.80;;;;;;;;;;20684726;28;20224;-80
2022/05/04 06:34:13;;;;;;;2.80;1.83;;;;;;;;;;20750498;28;20229;-81
2022/05/04 06:44:15;;;;;;;3.60;1.93;;;;;;;;;;20873404;28;20277;-79
2022/05/04 06:54:16;;;;;;;2.83;1.90;;;;;;;;;;20617816;28;20221;-81
2022/05/04 07:04:18;;;;;;;4.17;2.97;;;;;;;;;;20642338;28;20236;-84
2022/05/04 07:14:20;;;;;;;2.53;1.80;;;;;;;;;;20558881;28;20686;-82
2022/05/04 07:24:22;;;;;;;3.20;1.60;;;;;;;;;;20650367;28;20285;-84
2022/05/04 07:34:26;;;;;;;2.53;1.93;;;;;;;;;;20713744;28;20245;-85
2022/05/04 07:44:27;;;;;;;2.97;2.17;;;;;;;;;;20542217;28;20260;-85
2022/05/04 07:54:29;;;;;;;2.60;1.87;;;;;;;;;;20559469;28;20225;-85
2022/05/04 08:04:33;;;;;;;3.37;1.87;;;;;;;;;;20594450;28;20236;-85
2022/05/04 08:14:35;;;;;;;2.90;2.10;;;18.40;99.90;;;;;;20706025;28;20208;-85
2022/05/04 08:24:36;;;;;;;2.93;1.70;;;;;;;;;;20596590;28;20285;-86
2022/05/04 08:34:38;;;;;;;2.63;1.80;;;;;;;;;;20590106;28;20302;-84
2022/05/04 08:44:42;;;;;;;3.03;1.90;;;;;;;;;;20605895;28;20217;-85
2022/05/04 08:54:44;;;;;;;3.33;1.93;;;;;;;;;;20594174;28;20208;-84
2022/05/04 09:04:46;;;;;;;3.10;2.20;;;;;;;;;;20535132;28;20221;-83
2022/05/04 09:14:48;;;;;;;3.03;2.00;;;;;;;;;;20644197;28;20216;-81
2022/05/04 09:24:50;;;;;;;3.30;1.90;;;;;;;;;;20929469;28;20232;-82
2022/05/04 09:34:54;;;;;;;4.17;2.80;;;;;;;;;;20956495;28;20225;-82
2022/05/04 09:44:57;;;;;;;5.50;2.30;;;;;;;;;;20971174;28;20223;-84
2022/05/04 09:54:59;;;;;;;4.53;2.23;;;;;;;;;;20938909;28;20206;-84
2022/05/04 10:05:00;;;;;;;3.03;2.30;;;;;;;;;;20955478;28;20268;-83
2022/05/04 10:15:02;;;;;;;5.80;3.30;;;19.60;99.90;;;;;;20847444;28;20279;-83
2022/05/04 10:25:04;;;;;;;4.23;2.73;;;;;;;;;;20622994;28;20696;-84
2022/05/04 10:35:09;;;;;;;4.67;2.60;;;;;;;;;;20635110;28;20292;-83
2022/05/04 10:45:13;;;;;;;5.53;2.63;;;;;;;;;;20705007;28;20222;-85
2022/05/04 10:55:16;;;;;;;3.30;2.30;;;22.50;99.90;;;;;;20781182;28;20215;-84
2022/05/04 11:05:18;;;;;;;2.83;2.27;;;;;;;;;;20631832;28;20231;-84
2022/05/04 11:15:20;;;;;;;5.00;2.77;;;;;;;;;;20818919;28;20229;-84
2022/05/04 11:25:21;;;;;;;4.67;2.97;;;;;;;;;;20954053;28;20225;-85
2022/05/04 11:35:25;;;;;;;4.20;3.13;;;;;;;;;;20655457;28;20224;-85
2022/05/04 11:45:27;;;;;;;4.80;2.80;;;;;;;;;;20626848;28;20229;-85
2022/05/04 11:55:29;;;;;;;3.57;2.43;;;;;;;;;;20643626;28;20642;-86
2022/05/04 12:05:32;;;;;;;4.10;2.73;;;;;;;;;;20643496;28;20705;-86
2022/05/04 12:15:37;;;;;;;9.63;2.55;;;;;;;;;;20647131;28;20270;-85
2022/05/04 12:25:39;;;;;;;4.35;2.90;;;;;;;;;;20608320;28;20285;-85
2022/05/04 12:35:42;;;;;;;3.22;2.30;;;;;;;;;;20524307;28;20276;-84
2022/05/04 12:45:47;;;;;;;3.03;1.73;;;;;;;;;;20618453;28;20246;-84
2022/05/04 13:06:10;;;;;;;3.90;2.78;;;;;;;;;;20637362;28;20235;-83
2022/05/04 13:16:12;;;;;;;3.28;2.30;;;;;;;;;;20639842;28;20228;-83
2022/05/04 13:26:14;;;;;;;2.30;1.48;;;;;;;;;;20679122;28;20303;-83
2022/05/04 13:36:16;;;;;;;3.08;2.13;;;;;;;;;;20997978;28;20242;-84
2022/05/04 13:46:18;;;;;;;2.17;1.60;;;;;;;;;;20635675;28;20260;-83
2022/05/04 13:56:20;;;;;;;2.10;1.52;;;;;;;;;;20535044;28;20274;-84
2022/05/04 14:06:23;;;;;;;2.90;1.80;;;;;;;;;;20610063;28;20229;-84
2022/05/04 14:16:25;;;;;;;4.05;1.73;;;;;;;;;;20863857;28;20260;-84
2022/05/04 14:26:26;;;;;;;2.90;1.75;;;;;;;;;;20968861;28;20261;-84
2022/05/04 14:36:28;;;;;;;3.35;1.60;;;;;;;;;;20954260;28;20232;-84
2022/05/04 14:46:30;;;;;;;2.10;1.55;;;;;;;;;;20969909;28;20508;-86
2022/05/04 14:56:32;;;;;;;3.22;1.70;;;;;;;;;;20952515;28;20221;-84
2022/05/04 15:06:34;;;;;;;2.72;1.88;;;;;;;;;;20779577;28;20782;-83
2022/05/04 15:16:38;;;;;;;1.52;1.25;;;;;;;;;;20835417;28;20288;-85
2022/05/04 15:26:40;;;;;;;2.25;1.30;;;;;;;;;;20813475;28;20294;-87
2022/05/04 15:36:42;;;;;;;2.75;1.10;;;;;;;;;;20922396;28;20572;-85
2022/05/04 15:46:44;;;;;;;1.47;0.93;;;;;;;;;;20633740;28;20232;-86
2022/05/04 15:56:51;;;;;;;2.53;1.33;;;;;;;;;;20610319;28;20214;-86
2022/05/04 16:06:53;;;;;;;1.43;0.80;;;;;;;;;;20656937;28;20357;-84
2022/05/04 16:27:15;;;;;;;0.60;0.40;;;;;;;;;;20690926;28;20243;-84
2022/05/04 16:37:17;;;;;;;0.67;0.50;;;;;;;;;;20680927;28;20234;-85
2022/05/04 16:47:19;;;;;;;0.90;0.60;;;;;;;;;;20684966;28;20593;-85
2022/05/04 16:57:21;;;;;;;0.80;0.60;;;;;;;;;;20648441;28;20232;-86
2022/05/04 17:07:24;;;;;;;0.67;0.40;;;;;;;;;;20655026;28;20270;-86
2022/05/04 17:17:26;;;;;;;0.97;0.70;;;;;;;;;;20899655;28;20215;-85
2022/05/04 17:27:28;;;;;;;1.60;1.17;;;;;;;;;;20881324;28;20593;-84
2022/05/04 17:37:31;;;;;;;1.10;0.90;;;;;;;;;;20850066;28;20287;-85
2022/05/04 17:47:33;;;;;;;1.27;0.80;;;;;;;;;;20583865;28;20306;-83
2022/05/04 17:57:35;;;;;;;1.00;0.70;;;;;;;;;;20613069;28;20254;-83
2022/05/04 18:07:37;;;;;;;1.60;0.97;;;;;;;;;;20597463;28;20577;-83
2022/05/04 18:17:39;;;;;;;1.20;0.87;;;;;;;;;;20525315;28;20698;-83
2022/05/04 18:27:40;;;;;;;1.43;0.80;;;20.20;99.90;;;;;;20970441;28;20277;-82
2022/05/04 18:37:42;;;;;;;1.60;0.97;;;;;;;;;;20846089;28;20219;-83
2022/05/04 18:47:43;;;;;;;1.63;0.97;;;;;;;;;;20926001;28;20227;-83
2022/05/04 18:57:45;;;;;;;1.87;1.13;;;;;;;;;;20931748;28;20286;-82
2022/05/04 19:07:47;;;;;;;1.43;0.90;;;;;;;;;;20965682;28;20230;-82
2022/05/04 19:17:49;;;;;;;1.60;1.10;;;;;;;;;;20934045;28;20211;-82
2022/05/04 19:27:51;;;;;;;1.63;1.23;;;19.40;99.90;;;;;;20952046;28;20218;-83
2022/05/04 19:37:53;;;;;;;1.97;1.23;;;;;;;;;;20895787;28;20233;-83
2022/05/04 19:47:54;;;;;;;2.83;1.40;;;;;;;;;;20640318;28;20234;-80
2022/05/04 19:57:56;;;;;;;1.80;1.20;;;;;;;;;;20643850;28;20247;-82
2022/05/04 20:07:58;;;;;;;1.37;1.20;;;;;;;;;;20601270;28;20287;-81
2022/05/04 20:18:00;;;;;;;2.60;1.27;;;;;;;;;;20615792;28;20227;-81
2022/05/04 20:28:02;;;;;;;1.20;0.80;;;;;;;;;;20610957;28;20244;-81
2022/05/04 20:48:25;;;;;;;1.63;1.10;;;;;;;;;;20630125;28;20238;-82
2022/05/04 20:58:27;;;;;;;1.50;1.10;;;19.00;99.90;;;;;;20631391;28;20218;-82
2022/05/04 21:08:28;;;;;;;2.10;0.90;;;;;;;;;;20632884;28;20243;-81
2022/05/04 21:18:30;;;;;;;3.07;1.30;;;;;;;;;;20632587;28;20279;-80
2022/05/04 21:28:32;;;;;;;1.40;0.90;;;;;;;;;;20572952;28;20263;-83
2022/05/04 21:38:35;;;;;;;1.67;0.97;;;;;;;;;;20662199;28;20284;-81
2022/05/04 21:48:36;;;;;;;2.53;1.20;;;;;;;;;;20719785;28;20242;-81
2022/05/04 21:58:38;;;;;;;2.30;1.30;;;;;;;;;;20621171;28;20221;-81
2022/05/04 22:08:40;;;;;;;2.83;1.60;;;;;;;;;;20620458;28;20291;-80
2022/05/04 22:18:42;;;;;;;2.20;1.70;;;;;;;;;;20636784;28;20275;-80
2022/05/04 22:28:44;;;;;;;4.00;2.80;;;18.50;99.90;;;;;;20552462;28;20298;-80
2022/05/04 22:38:45;;;;;;;5.80;2.87;;;;;;;;;;20611002;28;20230;-79
2022/05/04 22:48:47;;;;;;;4.53;3.07;;;;;;;;;;20701400;28;20726;-78
2022/05/04 22:58:49;;;;;;;4.17;3.30;;;;;;;;;;20649193;28;20262;-81
2022/05/04 23:08:52;;;;;;;4.77;3.50;;;;;;;;;;20532528;28;20224;-81
2022/05/04 23:18:54;;;;;;;4.23;3.37;;;;;;;;;;20647912;28;20221;-80
2022/05/04 23:28:56;;;;;;;3.30;2.50;;;;;;;;;;20646013;28;20232;-80
2022/05/04 23:38:58;;;;;;;2.83;1.73;;;;;;;;;;20531455;28;20232;-80
2022/05/04 23:48:59;;;;;;;2.23;1.60;;;;;;;;;;20577300;28;20286;-80
2022/05/04 23:59:02;;;;;;;2.10;1.50;;;;;;;;;;20946839;28;20217;-79
